Time;durP1;ratioP1;P1;durP2;ratioP2;P2;SDS_P1;SDS_P2;PMS_P1;PMS_P2;Temp;Humidity;BMP_temperature;BMP_pressure;BME280_temperature;BME280_humidity;BME280_pressure;Samples;Min_cycle;Max_cycle;Signal;HPM_P1;HPM_P2
2023/05/17 00:00:16;;;;;;;3.90;3.60;;;;;;;;;;5037621;28;20201;-79
2023/05/17 00:02:42;;;;;;;5.15;3.40;;;;;;;;;;5032089;28;20044;-80
2023/05/17 00:05:10;;;;;;;3.70;3.45;;;;;;;;;;5050761;28;20041;-79
2023/05/17 00:07:36;;;;;;;3.72;3.30;;;;;;;;;;5036040;28;20033;-80
2023/05/17 00:10:02;;;;;;;4.05;3.20;;;;;;;;;;5018964;28;20048;-80
2023/05/17 00:12:28;;;;;;;6.43;3.83;;;;;;;;;;5051880;28;20029;-81
2023/05/17 00:14:55;;;;;;;4.32;3.65;;;;;;;;;;5054283;28;20029;-80
2023/05/17 00:17:21;;;;;;;5.25;4.15;;;;;;;;;;5051414;28;20044;-80
2023/05/17 00:19:47;;;;;;;11.85;4.47;;;;;;;;;;5049759;28;20056;-80
2023/05/17 00:22:13;;;;;;;5.80;5.10;;;;;;;;;;5049914;28;20040;-80
2023/05/17 00:24:39;;;;;;;5.07;4.65;;;;;;;;;;5050221;28;20037;-79
2023/05/17 00:27:06;;;;;;;7.70;5.22;;;;;;;;;;5015481;28;20037;-80
2023/05/17 00:29:32;;;;;;;15.07;6.68;;;;;;;;;;5015951;28;20029;-80
2023/05/17 00:31:58;;;;;;;8.90;7.20;;;;;;;;;;5046349;28;20547;-80
2023/05/17 00:34:24;;;;;;;9.50;5.03;;;;;;;;;;5058169;28;20032;-80
2023/05/17 00:36:50;;;;;;;4.82;4.30;;;;;;;;;;5055457;28;20032;-79
2023/05/17 00:39:15;;;;;;;11.75;4.57;;;;;;;;;;5055296;28;20047;-79
2023/05/17 00:41:42;;;;;;;7.03;4.00;;;;;;;;;;5016909;28;20033;-80
2023/05/17 00:44:08;;;;;;;6.72;3.92;;;;;;;;;;5023645;28;20061;-79
2023/05/17 00:46:34;;;;;;;5.82;4.20;;;;;;;;;;5022413;28;20037;-80
2023/05/17 00:49:00;;;;;;;5.50;4.22;;;;;;;;;;5047698;28;20040;-80
2023/05/17 00:51:27;;;;;;;6.05;4.57;;;;;;;;;;5065242;28;20037;-81
2023/05/17 00:53:53;;;;;;;4.88;4.45;;;;;;;;;;5062386;28;20408;-80
2023/05/17 00:56:19;;;;;;;5.72;4.10;;;;;;;;;;5057744;28;20086;-81
2023/05/17 00:58:45;;;;;;;4.50;3.75;;;;;;;;;;5038260;28;20424;-80
2023/05/17 01:01:11;;;;;;;9.48;3.97;;;;;;;;;;5035941;28;20124;-79
2023/05/17 01:03:37;;;;;;;4.78;4.38;;;;;;;;;;5019552;28;20037;-80
2023/05/17 01:06:04;;;;;;;9.57;4.20;;;;;;;;;;5038484;28;20505;-81
2023/05/17 01:08:30;;;;;;;5.00;4.47;;;;;;;;;;5038727;28;20037;-81
2023/05/17 01:11:08;;;;;;;8.05;7.25;;;;;;;;;;5054358;28;20057;-79
2023/05/17 01:13:41;;;;;;;6.57;4.55;;;;;;;;;;5052958;28;20512;-80
2023/05/17 01:16:27;;;;;;;3.92;3.63;;;;;;;;;;5038868;28;20417;-76
2023/05/17 01:18:56;;;;;;;4.00;3.75;;;;;;;;;;5020211;28;20040;-78
2023/05/17 01:21:41;;;;;;;5.13;4.18;;;;;;;;;;5051923;28;20052;-80
2023/05/17 01:24:13;;;;;;;8.77;3.90;;;;;;;;;;5052062;28;20599;-78
2023/05/17 01:26:40;;;;;;;5.28;4.78;;;;;;;;;;5034005;28;20040;-79
2023/05/17 01:29:07;;;;;;;8.32;5.85;;;;;;;;;;5051873;28;20120;-80
2023/05/17 01:31:34;;;;;;;7.35;4.80;;;;;;;;;;5034274;28;20064;-80
2023/05/17 01:34:00;;;;;;;6.80;5.65;;;;;;;;;;5033662;28;20166;-78
2023/05/17 01:36:27;;;;;;;5.75;4.78;;;;;;;;;;5051931;28;20044;-79
2023/05/17 01:38:53;;;;;;;5.93;5.43;;;;;;;;;;5050366;28;20102;-81
2023/05/17 01:41:39;;;;;;;5.00;4.60;;;;;;;;;;5033644;28;20063;-80
2023/05/17 01:44:21;;;;;;;5.13;4.60;;;;;;;;;;5051102;28;20048;-79
2023/05/17 01:46:48;;;;;;;5.95;5.45;;;;;;;;;;5033885;28;20029;-78
2023/05/17 01:49:21;;;;;;;10.63;6.28;;;;;;;;;;5017611;28;20033;-79
2023/05/17 01:51:48;;;;;;;8.55;5.97;;;;;;;;;;5050218;28;20560;-79
2023/05/17 01:54:18;;;;;;;5.97;5.40;;;;;;;;;;5033532;28;20031;-79
2023/05/17 01:56:45;;;;;;;10.48;5.78;;;;;;;;;;5017237;28;20044;-79
2023/05/17 01:59:11;;;;;;;6.68;5.97;;;;;;;;;;5033310;28;20052;-78
2023/05/17 02:01:37;;;;;;;6.97;5.10;;;;;;;;;;5033683;28;20400;-79
2023/05/17 02:04:03;;;;;;;7.78;5.45;;;;;;;;;;5050964;28;20052;-79
2023/05/17 02:06:30;;;;;;;6.45;5.85;;;;;;;;;;5050989;28;20057;-78
2023/05/17 02:08:59;;;;;;;12.88;5.30;;;;;;;;;;5051195;28;20420;-79
2023/05/17 02:11:25;;;;;;;8.90;5.78;;;;;;;;;;5016547;28;20025;-77
2023/05/17 02:13:51;;;;;;;9.32;6.22;;;;;;;;;;5049549;28;20032;-75
2023/05/17 02:16:18;;;;;;;16.10;6.32;;;;;;;;;;5050566;28;20029;-77
2023/05/17 02:18:44;;;;;;;9.32;6.30;;;;;;;;;;5051696;28;20638;-79
2023/05/17 02:21:12;;;;;;;12.23;6.30;;;;;;;;;;5050296;28;20541;-77
2023/05/17 02:23:38;;;;;;;7.55;6.10;;;;;;;;;;5050713;28;20455;-77
2023/05/17 02:26:04;;;;;;;11.55;6.22;;;;;;;;;;5016098;28;20120;-77
2023/05/17 02:28:30;;;;;;;15.57;6.97;;;;;;;;;;5032693;28;20083;-78
2023/05/17 02:30:56;;;;;;;22.95;7.38;;;;;;;;;;5050797;28;20036;-77
2023/05/17 02:33:22;;;;;;;16.30;7.90;;;;;;;;;;5032574;28;20071;-77
2023/05/17 02:35:49;;;;;;;17.27;8.18;;;;;;;;;;5034054;28;20056;-78
2023/05/17 02:38:17;;;;;;;15.57;8.10;;;;;;;;;;5057179;28;20057;-79
2023/05/17 02:40:43;;;;;;;7.55;5.90;;;;;;;;;;5050895;28;20120;-78
2023/05/17 02:43:09;;;;;;;17.63;9.60;;;;;;;;;;5032724;28;20568;-78
2023/05/17 02:45:35;;;;;;;13.15;6.40;;;;;;;;;;5032862;28;20036;-77
2023/05/17 02:48:01;;;;;;;12.55;6.90;;;;;;;;;;5032597;28;20049;-78
2023/05/17 02:50:28;;;;;;;13.82;7.68;;;;;;;;;;5049264;28;20036;-77
2023/05/17 02:52:55;;;;;;;14.38;7.20;;;;;;;;;;5034303;28;20498;-79
2023/05/17 02:55:21;;;;;;;13.05;8.20;;;;;;;;;;5032123;28;20385;-79
2023/05/17 02:57:47;;;;;;;15.25;7.72;;;;;;;;;;5049787;28;20686;-79
2023/05/17 03:00:15;;;;;;;9.55;6.93;;;;;;;;;;5032075;28;20094;-79
2023/05/17 03:02:42;;;;;;;15.13;8.00;;;;;;;;;;5029378;28;20576;-79
2023/05/17 03:05:07;;;;;;;11.40;6.60;;;;;;;;;;5012624;28;20127;-78
2023/05/17 03:07:36;;;;;;;11.43;6.78;;;;;;;;;;5028832;28;20041;-79
2023/05/17 03:10:02;;;;;;;13.50;6.45;;;;;;;;;;5028934;28;20041;-80
2023/05/17 03:12:34;;;;;;;10.60;6.30;;;;;;;;;;5048905;28;20556;-81
2023/05/17 03:15:00;;;;;;;11.75;7.00;;;;;;;;;;5050812;28;20095;-83
2023/05/17 03:17:26;;;;;;;11.50;7.13;;;;;;;;;;5036195;28;20033;-81
2023/05/17 03:19:53;;;;;;;7.05;6.05;;;;;;;;;;5055415;28;20065;-81
2023/05/17 03:22:19;;;;;;;9.70;6.40;;;;;;;;;;5045348;28;20037;-82
2023/05/17 03:24:46;;;;;;;16.88;6.70;;;;;;;;;;5039730;28;20084;-81
2023/05/17 03:27:12;;;;;;;19.48;8.65;;;;;;;;;;5033201;28;20033;-80
2023/05/17 03:29:39;;;;;;;14.48;7.43;;;;;;;;;;5018009;28;20032;-82
2023/05/17 03:32:05;;;;;;;10.07;7.93;;;;;;;;;;5019939;28;20072;-82
2023/05/17 03:34:31;;;;;;;9.10;6.45;;;;;;;;;;5051517;28;20075;-82
2023/05/17 03:36:58;;;;;;;7.53;5.72;;;;;;;;;;5051218;28;20051;-81
2023/05/17 03:39:24;;;;;;;9.45;5.50;;;;;;;;;;5050312;28;20037;-82
2023/05/17 03:41:50;;;;;;;7.63;5.97;;;;;;;;;;5033445;28;20470;-82
2023/05/17 03:44:19;;;;;;;11.10;6.03;;;;;;;;;;5033837;28;20041;-81
2023/05/17 03:46:45;;;;;;;12.27;6.78;;;;;;;;;;5032710;28;20036;-82
2023/05/17 03:49:11;;;;;;;10.98;7.65;;;;;;;;;;5047372;28;20045;-80
2023/05/17 03:51:38;;;;;;;13.75;6.43;;;;;;;;;;5049098;28;20032;-80
2023/05/17 03:54:05;;;;;;;13.88;6.57;;;;;;;;;;5033659;28;20041;-82
2023/05/17 03:56:31;;;;;;;7.35;6.57;;;;;;;;;;5050552;28;20488;-81
2023/05/17 03:58:57;;;;;;;8.68;6.05;;;;;;;;;;5019373;28;20462;-82
2023/05/17 04:01:23;;;;;;;9.75;6.03;;;;;;;;;;5023284;28;20094;-82
2023/05/17 04:03:49;;;;;;;11.27;5.82;;;;;;;;;;5056436;28;20043;-82
2023/05/17 04:06:15;;;;;;;8.55;5.45;;;;;;;;;;5019600;28;20112;-81
2023/05/17 04:08:42;;;;;;;11.52;5.47;;;;;;;;;;5042593;28;20033;-81
2023/05/17 04:11:09;;;;;;;5.88;4.30;;;;;;;;;;5062403;28;20032;-79
2023/05/17 04:13:39;;;;;;;5.97;5.07;;;;;;;;;;5037865;28;20032;-81
2023/05/17 04:16:08;;;;;;;11.70;5.00;;;;;;;;;;5050906;28;20032;-81
2023/05/17 04:18:36;;;;;;;5.95;4.88;;;;;;;;;;5041856;28;20053;-80
2023/05/17 04:21:02;;;;;;;11.32;4.85;;;;;;;;;;5070812;28;20144;-77
2023/05/17 04:23:28;;;;;;;5.72;4.13;;;;;;;;;;5052961;28;20041;-76
2023/05/17 04:25:58;;;;;;;8.10;4.60;;;;;;;;;;5002701;28;20021;-77
2023/05/17 04:28:24;;;;;;;12.00;3.83;;;;;;;;;;5033722;28;20052;-78
2023/05/17 04:30:51;;;;;;;5.45;3.40;;;;;;;;;;5055094;28;20033;-77
2023/05/17 04:33:18;;;;;;;7.70;4.00;;;;;;;;;;5017380;28;20037;-77
2023/05/17 04:35:45;;;;;;;8.65;3.80;;;;;;;;;;5035258;28;20071;-77
2023/05/17 04:38:12;;;;;;;10.48;4.40;;;;;;;;;;5032919;28;20053;-77
2023/05/17 04:40:38;;;;;;;7.20;3.90;;;;;;;;;;5032893;28;20057;-77
2023/05/17 04:43:05;;;;;;;4.05;3.70;;;;;;;;;;5050775;28;20132;-77
2023/05/17 04:45:32;;;;;;;4.00;3.70;;;;;;;;;;5033290;28;20033;-78
2023/05/17 04:48:00;;;;;;;5.03;4.00;;;;;;;;;;5030485;28;20034;-78
2023/05/17 04:50:26;;;;;;;4.78;4.28;;;;;;;;;;5029804;28;20033;-78
2023/05/17 04:52:52;;;;;;;15.43;4.22;;;;;;;;;;5030355;28;20040;-78
2023/05/17 04:55:19;;;;;;;4.22;3.70;;;;;;;;;;5031160;28;20095;-79
2023/05/17 04:57:45;;;;;;;5.95;3.50;;;;;;;;;;5032212;28;20409;-77
2023/05/17 05:00:14;;;;;;;4.97;3.45;;;;;;;;;;5032277;28;20037;-76
2023/05/17 05:02:42;;;;;;;5.60;3.65;;;;;;;;;;4998925;28;20072;-75
2023/05/17 05:05:10;;;;;;;6.35;3.53;;;;;;;;;;5031162;28;20061;-77
2023/05/17 05:07:38;;;;;;;9.95;3.60;;;;;;;;;;5038256;28;20024;-77
2023/05/17 05:10:05;;;;;;;4.45;3.55;;;;;;;;;;5050460;28;20514;-77
2023/05/17 05:12:32;;;;;;;9.43;3.60;;;;;;;;;;5050826;28;20056;-78
2023/05/17 05:14:58;;;;;;;3.17;2.90;;;;;;;;;;5049880;28;20116;-78
2023/05/17 05:17:24;;;;;;;4.68;3.30;;;;;;;;;;5033709;28;20123;-78
2023/05/17 05:19:51;;;;;;;9.63;2.78;;;;;;;;;;5032183;28;20464;-78
2023/05/17 05:22:18;;;;;;;3.60;3.30;;;;;;;;;;5017783;28;20036;-77
2023/05/17 05:24:44;;;;;;;7.28;2.78;;;;;;;;;;5048784;28;20029;-78
2023/05/17 05:27:10;;;;;;;7.15;3.10;;;;;;;;;;5012256;28;20033;-80
2023/05/17 05:29:37;;;;;;;4.22;2.80;;;;;;;;;;5002340;28;20028;-79
2023/05/17 05:32:03;;;;;;;2.60;2.40;;;;;;;;;;5048540;28;20040;-81
2023/05/17 05:34:32;;;;;;;3.05;2.40;;;;;;;;;;5035019;28;20554;-82
2023/05/17 05:36:59;;;;;;;4.30;2.53;;;;;;;;;;5053489;28;20037;-79
2023/05/17 05:39:26;;;;;;;2.75;2.30;;;;;;;;;;5043694;28;20107;-81
2023/05/17 05:41:52;;;;;;;7.95;2.42;;;;;;;;;;5043246;28;20097;-82
2023/05/17 05:44:18;;;;;;;3.40;2.55;;;;;;;;;;5038777;28;20062;-83
2023/05/17 05:46:45;;;;;;;2.97;2.67;;;;;;;;;;5035534;28;20025;-82
2023/05/17 05:49:11;;;;;;;2.70;2.50;;;;;;;;;;5034419;28;20071;-80
2023/05/17 05:51:38;;;;;;;4.43;2.60;;;;;;;;;;5031929;28;20175;-82
2023/05/17 05:54:04;;;;;;;2.83;2.53;;;;;;;;;;5050817;28;20029;-79
2023/05/17 05:56:30;;;;;;;10.23;2.40;;;;;;;;;;5020551;28;20037;-81
2023/05/17 05:58:56;;;;;;;2.00;1.90;;;;;;;;;;5000252;28;20037;-78
2023/05/17 06:01:24;;;;;;;8.90;2.50;;;;;;;;;;5016848;28;20037;-81
2023/05/17 06:03:50;;;;;;;9.88;1.90;;;;;;;;;;5034413;28;20135;-80
2023/05/17 06:06:18;;;;;;;9.15;2.58;;;;;;;;;;5031953;28;20025;-80
2023/05/17 06:08:45;;;;;;;4.03;2.40;;;;;;;;;;5062019;28;20557;-82
2023/05/17 06:11:15;;;;;;;5.47;2.10;;;;;;;;;;5060236;28;20449;-82
2023/05/17 06:13:41;;;;;;;6.07;2.10;;;;;;;;;;5034670;28;20033;-81
2023/05/17 06:16:07;;;;;;;2.00;1.90;;;;;;;;;;5035551;28;20041;-80
2023/05/17 06:18:33;;;;;;;4.78;1.98;;;;;;;;;;5052987;28;20041;-81
2023/05/17 06:20:58;;;;;;;8.23;2.00;;;;;;;;;;5056118;28;20106;-80
2023/05/17 06:23:24;;;;;;;3.88;1.92;;;;;;;;;;5038011;28;20547;-80
2023/05/17 06:25:51;;;;;;;7.72;2.38;;;;;;;;;;5051600;28;20082;-79
2023/05/17 06:28:17;;;;;;;3.53;2.00;;;;;;;;;;5016598;28;20048;-81
2023/05/17 06:30:43;;;;;;;5.15;2.20;;;;;;;;;;5051759;28;20033;-80
2023/05/17 06:33:09;;;;;;;6.72;3.28;;;;;;;;;;5015879;28;20409;-83
2023/05/17 06:35:35;;;;;;;3.58;2.47;;;;;;;;;;5008410;28;20087;-80
2023/05/17 06:38:01;;;;;;;5.07;2.22;;;;;;;;;;5055928;22;20186;-77
2023/05/17 06:40:27;;;;;;;3.33;2.33;;;;;;;;;;5044734;28;20520;-77
2023/05/17 06:42:53;;;;;;;5.00;2.13;;;;;;;;;;5078326;28;20033;-76
2023/05/17 06:45:20;;;;;;;3.45;1.90;;;;;;;;;;5067922;28;20036;-77
2023/05/17 06:47:46;;;;;;;4.38;1.85;;;;;;;;;;5049002;28;20036;-77
2023/05/17 06:50:12;;;;;;;2.50;2.30;;;;;;;;;;5067786;28;20048;-77
2023/05/17 06:52:39;;;;;;;2.50;2.30;;;;;;;;;;5049373;28;20503;-77
2023/05/17 06:55:06;;;;;;;7.18;2.30;;;;;;;;;;5050572;28;20028;-78
2023/05/17 06:57:32;;;;;;;7.68;1.92;;;;;;;;;;5051245;28;20380;-77
2023/05/17 06:59:58;;;;;;;2.13;2.03;;;;;;;;;;5052017;28;20313;-77
2023/05/17 07:02:24;;;;;;;2.10;2.00;;;;;;;;;;5052113;28;20182;-76
2023/05/17 07:04:50;;;;;;;2.97;2.13;;;;;;;;;;5051579;28;20136;-76
2023/05/17 07:07:16;;;;;;;2.50;2.30;;;;;;;;;;5069597;28;20462;-76
2023/05/17 07:09:42;;;;;;;3.97;1.85;;;;;;;;;;5070192;28;20562;-77
2023/05/17 07:12:08;;;;;;;2.55;2.00;;;;;;;;;;5073733;28;20024;-77
2023/05/17 07:14:35;;;;;;;2.90;2.70;;;;;;;;;;5054966;28;20070;-76
2023/05/17 07:17:00;;;;;;;3.97;2.00;;;;;;;;;;5072045;28;20515;-77
2023/05/17 07:19:27;;;;;;;2.67;1.90;;;;;;;;;;5071947;28;20081;-77
2023/05/17 07:21:53;;;;;;;2.10;2.00;;;;;;;;;;5072762;28;20020;-76
2023/05/17 07:24:19;;;;;;;2.00;1.80;;;;;;;;;;5071963;28;20055;-77
2023/05/17 07:26:45;;;;;;;3.95;2.35;;;;;;;;;;5089978;28;20442;-78
2023/05/17 07:29:11;;;;;;;3.45;2.70;;;;;;;;;;5089867;28;20485;-77
2023/05/17 07:31:37;;;;;;;2.33;1.95;;;;;;;;;;5071880;28;20024;-76
2023/05/17 07:34:04;;;;;;;5.97;2.10;;;;;;;;;;5090057;28;20135;-76
2023/05/17 07:36:30;;;;;;;4.00;1.80;;;;;;;;;;5089765;28;20183;-76
2023/05/17 07:38:56;;;;;;;2.22;1.90;;;;;;;;;;5071463;28;20226;-77
2023/05/17 07:41:22;;;;;;;2.53;2.05;;;;;;;;;;5071558;28;20044;-77
2023/05/17 07:43:49;;;;;;;2.40;2.20;;;;;;;;;;5075117;28;20036;-77
2023/05/17 07:46:16;;;;;;;4.43;2.03;;;;;;;;;;5059153;28;20388;-78
2023/05/17 07:48:42;;;;;;;2.13;1.92;;;;;;;;;;5075424;28;20055;-77
2023/05/17 07:51:08;;;;;;;8.60;2.35;;;;;;;;;;5093975;28;20036;-77
2023/05/17 07:53:34;;;;;;;1.95;1.83;;;;;;;;;;5093475;28;20119;-76
2023/05/17 07:56:00;;;;;;;4.03;2.33;;;;;;;;;;5075922;28;20181;-76
2023/05/17 07:58:26;;;;;;;3.90;2.33;;;;;;;;;;5093510;28;20036;-77
2023/05/17 08:00:52;;;;;;;7.55;2.35;;;;;;;;;;5093683;28;20047;-76
2023/05/17 08:03:18;;;;;;;3.25;2.10;;;;;;;;;;5093728;28;20039;-76
2023/05/17 08:05:44;;;;;;;4.97;2.10;;;;;;;;;;5093472;28;20035;-76
2023/05/17 08:08:10;;;;;;;2.53;2.33;;;;;;;;;;5093940;28;20032;-78
2023/05/17 08:10:36;;;;;;;4.93;2.20;;;;;;;;;;5094927;28;20042;-77
2023/05/17 08:13:03;;;;;;;3.13;2.17;;;;;;;;;;5093365;28;20039;-77
2023/05/17 08:15:29;;;;;;;6.18;2.20;;;;;;;;;;5093224;28;20086;-76
2023/05/17 08:17:55;;;;;;;2.15;2.03;;;;;;;;;;5075117;28;20419;-76
2023/05/17 08:20:21;;;;;;;2.03;1.92;;;;;;;;;;5094123;28;20043;-77
2023/05/17 08:22:50;;;;;;;6.70;2.53;;;;;;;;;;5068875;28;20029;-75
2023/05/17 08:25:16;;;;;;;2.17;2.08;;;;;;;;;;5072851;28;20051;-76
2023/05/17 08:27:43;;;;;;;5.22;2.00;;;;;;;;;;5054789;28;20040;-77
2023/05/17 08:30:09;;;;;;;2.30;2.13;;;;;;;;;;5055233;28;20510;-78
2023/05/17 08:32:35;;;;;;;2.60;2.40;;;;;;;;;;5057843;28;20120;-77
2023/05/17 08:35:01;;;;;;;2.75;1.75;;;;;;;;;;5074943;28;20032;-77
2023/05/17 08:37:29;;;;;;;2.33;2.20;;;;;;;;;;5074966;28;20409;-75
2023/05/17 08:39:55;;;;;;;2.33;2.20;;;;;;;;;;5087694;28;20052;-77
2023/05/17 08:42:25;;;;;;;7.53;6.97;;;;;;;;;;5072804;28;20039;-77
2023/05/17 08:44:51;;;;;;;2.63;2.42;;;;;;;;;;5072598;28;20071;-76
2023/05/17 08:47:30;;;;;;;3.38;2.30;;;;;;;;;;5072583;28;20039;-76
2023/05/17 08:49:59;;;;;;;2.60;1.98;;;;;;;;;;5056639;28;20498;-76
2023/05/17 08:52:28;;;;;;;5.75;2.20;;;;;;;;;;5054832;28;20152;-76
2023/05/17 08:54:55;;;;;;;3.78;2.28;;;;;;;;;;5071267;28;20040;-77
2023/05/17 08:57:23;;;;;;;3.30;2.20;;;;;;;;;;5072535;28;20029;-77
2023/05/17 08:59:49;;;;;;;2.42;2.33;;;;;;;;;;5054513;28;20071;-78
2023/05/17 09:02:15;;;;;;;2.35;2.15;;;;;;;;;;5054510;28;20119;-77
2023/05/17 09:04:41;;;;;;;2.22;2.13;;;;;;;;;;5054268;28;20131;-77
2023/05/17 09:07:07;;;;;;;3.05;2.50;;;;;;;;;;5072336;28;20032;-76
2023/05/17 09:09:33;;;;;;;2.97;2.20;;;;;;;;;;5072047;28;20033;-76
2023/05/17 09:12:02;;;;;;;2.50;2.30;;;;;;;;;;5072302;28;20068;-78
2023/05/17 09:14:35;;;;;;;2.55;2.33;;;;;;;;;;5021461;28;20028;-77
2023/05/17 09:17:01;;;;;;;4.88;2.33;;;;;;;;;;5055496;28;20028;-78
2023/05/17 09:19:28;;;;;;;3.95;2.47;;;;;;;;;;5059276;28;20518;-77
2023/05/17 09:21:54;;;;;;;2.95;2.33;;;;;;;;;;5064303;28;20082;-77
2023/05/17 09:24:28;;;;;;;3.08;2.85;;;;;;;;;;5071952;28;20462;-78
2023/05/17 09:26:54;;;;;;;3.95;2.30;;;;;;;;;;5079345;28;20496;-76
2023/05/17 09:29:20;;;;;;;2.30;2.10;;;;;;;;;;5057717;28;20060;-76
2023/05/17 09:31:47;;;;;;;2.67;2.40;;;;;;;;;;5054113;28;20434;-77
2023/05/17 09:34:13;;;;;;;3.15;2.22;;;;;;;;;;5071755;28;20067;-76
2023/05/17 09:36:43;;;;;;;2.42;2.22;;;;;;;;;;5061425;28;20063;-76
2023/05/17 09:39:11;;;;;;;2.60;2.40;;;;;;;;;;5061254;28;20067;-76
2023/05/17 09:41:41;;;;;;;3.53;2.38;;;;;;;;;;5063498;28;20024;-77
2023/05/17 09:44:08;;;;;;;3.30;2.00;;;;;;;;;;5079511;28;20086;-77
2023/05/17 09:46:34;;;;;;;2.85;2.10;;;;;;;;;;5083709;28;20020;-77
2023/05/17 09:49:00;;;;;;;2.22;2.13;;;;;;;;;;5083854;28;20038;-76
2023/05/17 09:51:41;;;;;;;2.42;2.28;;;;;;;;;;5062645;28;20079;-76
2023/05/17 09:54:07;;;;;;;;;;;;;;;;;;5082879;28;20028;-76
2023/05/17 09:56:33;;;;;;;3.13;2.40;;;;;;;;;;5083600;28;19969;-75
2023/05/17 09:59:00;;;;;;;2.53;2.30;;;;;;;;;;5080990;28;20040;-77
2023/05/17 10:01:27;;;;;;;2.40;2.20;;;;;;;;;;5066247;28;20439;-77
2023/05/17 10:03:57;;;;;;;5.72;2.40;;;;;;;;;;5081086;28;20538;-76
2023/05/17 10:06:27;;;;;;;7.22;2.50;;;;;;;;;;5043437;28;20047;-76
2023/05/17 10:08:55;;;;;;;2.50;2.30;;;;;;;;;;5059782;28;20024;-76
2023/05/17 10:11:22;;;;;;;2.50;2.33;;;;;;;;;;5034153;28;20056;-77
2023/05/17 10:13:53;;;;;;;2.78;2.58;;;;;;;;;;5080358;28;20031;-75
2023/05/17 10:16:20;;;;;;;3.88;2.60;;;;;;;;;;5084610;28;20032;-76
2023/05/17 10:18:47;;;;;;;3.47;2.30;;;;;;;;;;5060930;28;20032;-76
2023/05/17 10:21:22;;;;;;;2.85;2.20;;;;;;;;;;5087696;28;20039;-77
2023/05/17 10:23:48;;;;;;;2.35;2.25;;;;;;;;;;5061401;28;20384;-76
2023/05/17 10:26:17;;;;;;;4.00;2.65;;;;;;;;;;5080711;28;20032;-76
2023/05/17 10:28:43;;;;;;;3.80;2.13;;;;;;;;;;5047506;28;20515;-77
2023/05/17 10:31:09;;;;;;;2.15;2.05;;;;;;;;;;5062745;28;20400;-76
2023/05/17 10:33:38;;;;;;;2.97;2.42;;;;;;;;;;5060000;28;20043;-77
2023/05/17 10:36:05;;;;;;;4.28;2.20;;;;;;;;;;5061609;28;20020;-77
2023/05/17 10:38:31;;;;;;;6.68;2.30;;;;;;;;;;5061131;28;20044;-78
2023/05/17 10:40:57;;;;;;;2.30;2.20;;;;;;;;;;5059685;28;20076;-76
2023/05/17 10:43:23;;;;;;;3.38;2.17;;;;;;;;;;5085290;28;20060;-77
2023/05/17 10:45:49;;;;;;;2.20;2.10;;;;;;;;;;5060096;28;20040;-77
2023/05/17 10:48:16;;;;;;;2.55;2.45;;;;;;;;;;5063121;28;20461;-76
2023/05/17 10:50:43;;;;;;;4.25;1.90;;;;;;;;;;5060216;28;20028;-76
2023/05/17 10:53:10;;;;;;;2.60;2.40;;;;;;;;;;5032848;28;20105;-76
2023/05/17 10:55:40;;;;;;;3.03;2.22;;;;;;;;;;5060950;28;20054;-78
2023/05/17 10:58:14;;;;;;;3.28;2.40;;;;;;;;;;5080219;28;20020;-77
2023/05/17 11:00:41;;;;;;;2.55;2.33;;;;;;;;;;5079915;28;20058;-76
2023/05/17 11:03:16;;;;;;;6.47;2.30;;;;;;;;;;5066833;28;20044;-76
2023/05/17 11:05:44;;;;;;;2.97;2.60;;;;;;;;;;5068646;28;20029;-76
2023/05/17 11:08:16;;;;;;;2.92;2.42;;;;;;;;;;5053672;28;20122;-76
2023/05/17 11:11:01;;;;;;;3.38;2.20;;;;;;;;;;5065927;28;20059;-77
2023/05/17 11:13:28;;;;;;;2.40;2.30;;;;;;;;;;5081705;28;20036;-77
2023/05/17 11:16:04;;;;;;;2.40;2.22;;;;;;;;;;5044889;28;20031;-77
2023/05/17 11:18:49;;;;;;;2.13;2.03;;;;;;;;;;5079042;28;20090;-76
2023/05/17 11:21:15;;;;;;;2.60;2.40;;;;;;;;;;5061993;28;20131;-76
2023/05/17 11:23:43;;;;;;;3.70;2.35;;;;;;;;;;5061289;28;20099;-76
2023/05/17 11:26:18;;;;;;;3.05;2.40;;;;;;;;;;5078786;28;20029;-77
2023/05/17 11:28:44;;;;;;;2.28;2.17;;;;;;;;;;5077669;28;20095;-76
2023/05/17 11:31:11;;;;;;;3.05;2.03;;;;;;;;;;5078177;28;20028;-77
2023/05/17 11:33:38;;;;;;;2.75;2.22;;;;;;;;;;5079148;28;20388;-78
2023/05/17 11:36:12;;;;;;;3.22;2.20;;;;;;;;;;5077668;28;20086;-75
2023/05/17 11:38:38;;;;;;;2.70;2.42;;;;;;;;;;5058679;28;20419;-76
2023/05/17 11:41:20;;;;;;;3.10;2.22;;;;;;;;;;5060405;28;20040;-76
2023/05/17 11:43:47;;;;;;;3.97;2.20;;;;;;;;;;5059854;28;20024;-77
2023/05/17 11:46:17;;;;;;;2.88;2.20;;;;;;;;;;5059802;28;20127;-76
2023/05/17 11:48:43;;;;;;;;;;;;;;;;;;5058024;28;20058;-76
2023/05/17 11:51:10;;;;;;;2.45;2.35;;;;;;;;;;5085338;28;19912;-76
2023/05/17 11:53:36;;;;;;;9.73;2.45;;;;;;;;;;5062698;28;20060;-76
2023/05/17 11:56:03;;;;;;;2.15;2.05;;;;;;;;;;5077216;28;20082;-76
2023/05/17 11:58:29;;;;;;;2.70;2.50;;;;;;;;;;5051332;28;20060;-75
2023/05/17 12:00:57;;;;;;;2.45;2.13;;;;;;;;;;5069400;28;20119;-75
2023/05/17 12:03:29;;;;;;;2.40;2.20;;;;;;;;;;5069702;28;20041;-77
2023/05/17 12:06:01;;;;;;;2.43;2.23;;;;;;;;;;5069210;28;20523;-76
2023/05/17 12:08:30;;;;;;;2.90;2.20;;;;;;;;;;5069038;28;20035;-78
2023/05/17 12:10:57;;;;;;;4.70;2.60;;;;;;;;;;5059380;28;20238;-76
2023/05/17 12:13:23;;;;;;;2.30;2.10;;;;;;;;;;5059820;28;20134;-77
2023/05/17 12:15:53;;;;;;;3.60;2.22;;;;;;;;;;5061948;28;20477;-77
2023/05/17 12:18:19;;;;;;;5.38;2.63;;;;;;;;;;5062339;28;20051;-77
2023/05/17 12:20:53;;;;;;;4.40;2.40;;;;;;;;;;5079410;28;20123;-77
2023/05/17 12:23:24;;;;;;;2.67;2.47;;;;;;;;;;5077888;28;20035;-77
2023/05/17 12:25:50;;;;;;;3.80;2.65;;;;;;;;;;5058636;28;20039;-77
2023/05/17 12:28:20;;;;;;;6.45;2.60;;;;;;;;;;5062081;28;20037;-76
2023/05/17 12:30:53;;;;;;;2.10;2.00;;;;;;;;;;5080434;28;20134;-77
2023/05/17 12:33:19;;;;;;;7.45;2.60;;;;;;;;;;5054685;28;20508;-76
2023/05/17 12:35:45;;;;;;;2.13;2.03;;;;;;;;;;5062690;28;20032;-76
2023/05/17 12:38:12;;;;;;;2.42;2.22;;;;;;;;;;5081631;28;20036;-77
2023/05/17 12:40:38;;;;;;;2.58;2.38;;;;;;;;;;5067746;28;20503;-76
2023/05/17 12:43:05;;;;;;;2.40;2.30;;;;;;;;;;5054564;28;20056;-78
2023/05/17 12:45:31;;;;;;;2.50;2.30;;;;;;;;;;5079832;28;20036;-77
2023/05/17 12:47:58;;;;;;;2.83;2.17;;;;;;;;;;5081732;28;20024;-77
2023/05/17 12:50:29;;;;;;;2.05;1.95;;;;;;;;;;5063427;28;20050;-76
2023/05/17 12:52:55;;;;;;;3.10;2.40;;;;;;;;;;5046007;28;20033;-76
2023/05/17 12:55:22;;;;;;;3.50;2.28;;;;;;;;;;5063420;28;20047;-76
2023/05/17 12:57:51;;;;;;;2.35;2.25;;;;;;;;;;5063814;28;20020;-78
2023/05/17 13:00:18;;;;;;;2.47;2.30;;;;;;;;;;5080649;28;20044;-76
2023/05/17 13:02:44;;;;;;;3.45;2.53;;;;;;;;;;5063950;28;20685;-76
2023/05/17 13:05:17;;;;;;;3.30;3.00;;;;;;;;;;5086716;28;20067;-76
2023/05/17 13:07:45;;;;;;;2.42;2.33;;;;;;;;;;5065901;28;20029;-76
2023/05/17 13:10:24;;;;;;;2.15;2.05;;;;;;;;;;5043297;28;20036;-76
2023/05/17 13:12:56;;;;;;;5.57;2.70;;;;;;;;;;5075183;28;20111;-76
2023/05/17 13:15:32;;;;;;;3.92;2.10;;;;;;;;;;5093257;28;20036;-76
2023/05/17 13:17:58;;;;;;;2.72;2.45;;;;;;;;;;5063302;28;20037;-77
2023/05/17 13:20:28;;;;;;;3.28;2.40;;;;;;;;;;5053549;28;20039;-77
2023/05/17 13:22:57;;;;;;;6.22;2.58;;;;;;;;;;5071134;28;20131;-76
2023/05/17 13:25:23;;;;;;;2.33;2.22;;;;;;;;;;5054673;28;20276;-76
2023/05/17 13:27:49;;;;;;;3.22;2.40;;;;;;;;;;5080927;28;20074;-77
2023/05/17 13:30:15;;;;;;;3.38;2.15;;;;;;;;;;5071471;28;20028;-77
2023/05/17 13:32:41;;;;;;;3.67;2.38;;;;;;;;;;5059612;28;20059;-76
2023/05/17 13:35:07;;;;;;;2.88;2.28;;;;;;;;;;5085314;28;20055;-76
2023/05/17 13:37:34;;;;;;;3.53;2.55;;;;;;;;;;5065281;28;20063;-76
2023/05/17 13:40:01;;;;;;;6.93;2.97;;;;;;;;;;5082018;28;20052;-76
2023/05/17 13:42:27;;;;;;;3.63;3.42;;;;;;;;;;5081034;28;20035;-76
2023/05/17 13:44:53;;;;;;;5.28;2.70;;;;;;;;;;5062119;28;20040;-76
2023/05/17 13:47:20;;;;;;;6.13;2.60;;;;;;;;;;5053425;28;20082;-75
2023/05/17 13:49:46;;;;;;;3.53;2.60;;;;;;;;;;5070940;28;20500;-76
2023/05/17 13:52:12;;;;;;;6.07;2.63;;;;;;;;;;5071338;28;20442;-74
2023/05/17 13:54:39;;;;;;;5.20;2.63;;;;;;;;;;5070658;28;20036;-76
2023/05/17 13:57:05;;;;;;;2.95;2.72;;;;;;;;;;5071061;28;20020;-75
2023/05/17 13:59:32;;;;;;;2.88;2.63;;;;;;;;;;5070947;28;20048;-75
2023/05/17 14:01:58;;;;;;;5.15;2.80;;;;;;;;;;5052950;28;20036;-75
2023/05/17 14:04:24;;;;;;;5.13;3.10;;;;;;;;;;5052724;28;20106;-76
2023/05/17 14:06:50;;;;;;;2.50;2.35;;;;;;;;;;5036345;28;20504;-76
2023/05/17 14:09:16;;;;;;;2.90;2.70;;;;;;;;;;5042798;28;20147;-75
2023/05/17 14:11:42;;;;;;;5.15;2.80;;;;;;;;;;5064119;28;20051;-75
2023/05/17 14:14:09;;;;;;;2.63;2.42;;;;;;;;;;5066414;28;20032;-76
2023/05/17 14:16:36;;;;;;;3.03;2.70;;;;;;;;;;5100680;28;20054;-76
2023/05/17 14:19:02;;;;;;;2.60;2.40;;;;;;;;;;5074107;28;20092;-75
2023/05/17 14:21:28;;;;;;;4.03;2.92;;;;;;;;;;5088791;28;20044;-76
2023/05/17 14:23:54;;;;;;;4.80;2.53;;;;;;;;;;5052681;28;20127;-75
2023/05/17 14:26:21;;;;;;;4.53;2.65;;;;;;;;;;5058556;28;20055;-75
2023/05/17 14:28:47;;;;;;;3.97;2.80;;;;;;;;;;5070471;28;20036;-75
2023/05/17 14:31:13;;;;;;;2.92;2.70;;;;;;;;;;5090682;28;20126;-76
2023/05/17 14:33:40;;;;;;;5.85;3.10;;;;;;;;;;5071130;28;20028;-75
2023/05/17 14:36:06;;;;;;;3.22;3.00;;;;;;;;;;5079111;28;20025;-76
2023/05/17 14:38:32;;;;;;;3.78;3.10;;;;;;;;;;5080788;28;20044;-76
2023/05/17 14:40:59;;;;;;;3.85;2.80;;;;;;;;;;5059855;28;20040;-76
2023/05/17 14:43:26;;;;;;;3.40;3.10;;;;;;;;;;5079445;28;20024;-76